createdAt,value
2022-12-05T00:00:34.100Z,5.50
2022-12-05T00:01:34.076Z,5.43
2022-12-05T00:02:34.073Z,5.46
2022-12-05T00:03:33.970Z,5.43
2022-12-05T00:04:33.992Z,5.39
2022-12-05T00:05:33.901Z,5.53
2022-12-05T00:06:33.850Z,5.44
2022-12-05T00:07:33.850Z,5.48
2022-12-05T00:08:33.775Z,5.44
2022-12-05T00:09:33.730Z,5.48
2022-12-05T00:10:33.688Z,5.33
2022-12-05T00:11:33.651Z,5.26
2022-12-05T00:12:33.612Z,5.30
2022-12-05T00:13:33.578Z,5.33
2022-12-05T00:14:33.539Z,5.38
2022-12-05T00:15:33.507Z,5.44
2022-12-05T00:16:33.489Z,5.35
2022-12-05T00:17:33.451Z,5.28
2022-12-05T00:18:33.376Z,5.29
2022-12-05T00:19:33.337Z,5.35
2022-12-05T00:20:33.297Z,5.44
2022-12-05T00:21:33.262Z,5.41
2022-12-05T00:22:33.220Z,5.38
2022-12-05T00:23:33.189Z,5.36
2022-12-05T00:24:33.144Z,5.48
2022-12-05T00:25:33.101Z,5.56
2022-12-05T00:26:33.056Z,5.47
2022-12-05T00:27:33.030Z,5.46
2022-12-05T00:28:32.980Z,5.44
2022-12-05T00:29:32.942Z,5.39
2022-12-05T00:30:32.902Z,5.33
2022-12-05T00:31:32.927Z,5.14
2022-12-05T00:32:32.826Z,5.14
2022-12-05T00:33:32.785Z,5.17
2022-12-05T00:34:32.742Z,5.28
2022-12-05T00:35:32.711Z,5.20
2022-12-05T00:36:32.667Z,5.14
2022-12-05T00:37:32.629Z,5.08
2022-12-05T00:38:32.583Z,5.23
2022-12-05T00:39:32.555Z,5.23
2022-12-05T00:40:32.510Z,5.15
2022-12-05T00:41:32.469Z,5.10
2022-12-05T00:42:32.428Z,5.11
2022-12-05T00:43:32.389Z,5.30
2022-12-05T00:44:32.350Z,5.29
2022-12-05T00:45:32.360Z,5.35
2022-12-05T00:46:32.276Z,5.39
2022-12-05T00:47:32.239Z,5.43
2022-12-05T00:48:32.190Z,5.28
2022-12-05T00:49:32.156Z,5.35
2022-12-05T00:50:32.113Z,5.30
2022-12-05T00:51:32.081Z,5.32
2022-12-05T00:52:32.030Z,5.20
2022-12-05T00:53:31.997Z,5.14
2022-12-05T00:54:31.951Z,5.26
2022-12-05T00:55:31.938Z,5.32
2022-12-05T00:56:31.880Z,5.35
2022-12-05T00:57:31.834Z,5.29
2022-12-05T00:58:31.794Z,5.32
2022-12-05T00:59:31.756Z,5.29
2022-12-05T01:00:31.713Z,5.29
2022-12-05T01:01:31.718Z,5.46
2022-12-05T01:02:31.640Z,5.43
2022-12-05T01:03:31.657Z,5.38
2022-12-05T01:04:31.559Z,5.35
2022-12-05T01:05:31.522Z,5.46
2022-12-05T01:06:31.493Z,5.51
2022-12-05T01:07:31.507Z,5.48
2022-12-05T01:08:31.402Z,5.43
2022-12-05T01:09:31.363Z,5.39
2022-12-05T01:10:31.321Z,5.43
2022-12-05T01:11:33.123Z,5.28
2022-12-05T01:12:31.244Z,5.10
2022-12-05T01:13:31.206Z,5.17
2022-12-05T01:14:31.158Z,5.04
2022-12-05T01:15:31.121Z,5.05
2022-12-05T01:16:31.156Z,5.17
2022-12-05T01:17:31.046Z,5.17
2022-12-05T01:18:31.005Z,5.15
2022-12-05T01:19:30.963Z,5.21
2022-12-05T01:20:30.921Z,5.30
2022-12-05T01:21:30.890Z,5.44
2022-12-05T01:22:30.859Z,5.36
2022-12-05T01:23:30.807Z,5.46
2022-12-05T01:24:30.764Z,5.38
2022-12-05T01:25:30.729Z,5.43
2022-12-05T01:26:30.687Z,5.32
2022-12-05T01:27:30.658Z,5.23
2022-12-05T01:28:30.662Z,5.20
2022-12-05T01:29:30.568Z,5.29
2022-12-05T01:30:30.531Z,5.26
2022-12-05T01:31:30.539Z,5.30
2022-12-05T01:32:30.446Z,5.30
2022-12-05T01:33:30.410Z,5.30
2022-12-05T01:34:30.370Z,5.30
2022-12-05T01:35:30.327Z,5.28
2022-12-05T01:36:30.289Z,5.18
2022-12-05T01:37:30.253Z,5.23
2022-12-05T01:38:30.212Z,5.30
2022-12-05T01:39:30.168Z,5.29
2022-12-05T01:40:30.129Z,5.32
2022-12-05T01:41:30.095Z,5.38
2022-12-05T01:42:30.064Z,5.21
2022-12-05T01:43:30.031Z,5.12
2022-12-05T01:44:29.974Z,5.18
2022-12-05T01:45:29.978Z,5.28
2022-12-05T01:46:30.007Z,5.30
2022-12-05T01:47:29.863Z,5.32
2022-12-05T01:48:29.811Z,5.28
2022-12-05T01:49:29.774Z,5.28
2022-12-05T01:50:29.733Z,5.35
2022-12-05T01:51:29.702Z,5.33
2022-12-05T01:52:29.657Z,5.33
2022-12-05T01:53:29.630Z,5.29
2022-12-05T01:54:29.580Z,5.39
2022-12-05T01:55:29.539Z,5.41
2022-12-05T01:56:29.497Z,5.43
2022-12-05T01:57:29.462Z,5.41
2022-12-05T01:58:29.416Z,5.35
2022-12-05T01:59:29.388Z,5.39
2022-12-05T02:00:29.340Z,5.43
2022-12-05T02:01:29.346Z,5.44
2022-12-05T02:02:29.345Z,5.33
2022-12-05T02:03:29.221Z,5.38
2022-12-05T02:04:29.177Z,5.44
2022-12-05T02:05:29.141Z,5.41
2022-12-05T02:06:29.105Z,5.44
2022-12-05T02:07:29.162Z,5.46
2022-12-05T02:08:29.026Z,5.43
2022-12-05T02:09:28.982Z,5.43
2022-12-05T02:10:28.943Z,5.43
2022-12-05T02:11:28.903Z,5.46
2022-12-05T02:12:28.868Z,5.51
2022-12-05T02:13:28.823Z,5.46
2022-12-05T02:14:28.785Z,5.48
2022-12-05T02:15:28.753Z,5.47
2022-12-05T02:16:28.735Z,5.46
2022-12-05T02:17:28.667Z,5.50
2022-12-05T02:18:28.633Z,5.48
2022-12-05T02:19:28.583Z,5.43
2022-12-05T02:20:28.544Z,5.46
2022-12-05T02:21:28.513Z,5.38
2022-12-05T02:22:28.468Z,5.38
2022-12-05T02:23:28.424Z,5.41
2022-12-05T02:24:28.382Z,5.41
2022-12-05T02:25:28.354Z,5.29
2022-12-05T02:26:28.310Z,5.41
2022-12-05T02:27:28.267Z,5.41
2022-12-05T02:28:28.226Z,5.43
2022-12-05T02:29:28.189Z,5.44
2022-12-05T02:30:28.151Z,5.43
2022-12-05T02:31:28.194Z,5.33
2022-12-05T02:32:28.068Z,5.30
2022-12-05T02:33:28.032Z,5.25
2022-12-05T02:34:27.989Z,5.36
2022-12-05T02:35:27.947Z,5.30
2022-12-05T02:36:27.917Z,5.26
2022-12-05T02:37:27.872Z,5.32
2022-12-05T02:38:27.834Z,5.21
2022-12-05T02:39:27.796Z,5.33
2022-12-05T02:40:27.747Z,5.15
2022-12-05T02:41:27.706Z,5.18
2022-12-05T02:42:27.670Z,5.15
2022-12-05T02:43:27.632Z,5.21
2022-12-05T02:44:27.597Z,5.17
2022-12-05T02:45:27.575Z,5.12
2022-12-05T02:46:27.555Z,5.12
2022-12-05T02:47:27.477Z,5.15
2022-12-05T02:48:27.429Z,5.10
2022-12-05T02:49:27.395Z,5.11
2022-12-05T02:50:27.350Z,5.04
2022-12-05T02:51:27.314Z,5.04
2022-12-05T02:52:27.284Z,4.99
2022-12-05T02:53:27.250Z,4.94
2022-12-05T02:54:27.191Z,4.96
2022-12-05T02:55:27.154Z,4.97
2022-12-05T02:56:27.113Z,4.89
2022-12-05T02:57:27.069Z,4.96
2022-12-05T02:58:27.046Z,4.86
2022-12-05T02:59:26.993Z,4.84
2022-12-05T03:00:26.951Z,4.89
2022-12-05T03:01:26.980Z,4.90
2022-12-05T03:02:26.875Z,4.87
2022-12-05T03:03:26.848Z,4.87
2022-12-05T03:04:26.920Z,4.82
2022-12-05T03:05:26.756Z,4.78
2022-12-05T03:06:26.717Z,4.77
2022-12-05T03:07:26.675Z,4.66
2022-12-05T03:08:26.640Z,4.70
2022-12-05T03:09:26.591Z,4.60
2022-12-05T03:10:26.555Z,4.59
2022-12-05T03:11:26.512Z,4.59
2022-12-05T03:12:26.504Z,4.59
2022-12-05T03:13:26.430Z,4.59
2022-12-05T03:14:26.394Z,4.60
2022-12-05T03:15:26.370Z,4.56
2022-12-05T03:16:26.512Z,4.56
2022-12-05T03:17:26.270Z,4.55
2022-12-05T03:18:26.226Z,4.52
2022-12-05T03:19:26.197Z,4.48
2022-12-05T03:20:26.151Z,4.49
2022-12-05T03:21:26.105Z,4.48
2022-12-05T03:22:26.073Z,4.52
2022-12-05T03:23:26.027Z,4.42
2022-12-05T03:24:25.987Z,4.40
2022-12-05T03:25:25.947Z,4.38
2022-12-05T03:26:25.911Z,4.34
2022-12-05T03:27:25.887Z,4.20
2022-12-05T03:28:25.829Z,4.16
2022-12-05T03:29:25.787Z,4.10
2022-12-05T03:30:25.789Z,4.20
2022-12-05T03:31:25.770Z,4.22
2022-12-05T03:32:25.675Z,4.14
2022-12-05T03:33:25.631Z,4.23
2022-12-05T03:34:25.591Z,4.16
2022-12-05T03:35:25.564Z,4.24
2022-12-05T03:36:25.502Z,4.20
2022-12-05T03:37:25.462Z,4.20
2022-12-05T03:38:25.432Z,4.23
2022-12-05T03:39:25.387Z,4.19
2022-12-05T03:40:25.341Z,4.17
2022-12-05T03:41:25.305Z,4.23
2022-12-05T03:42:25.265Z,4.20
2022-12-05T03:43:25.239Z,4.17
2022-12-05T03:44:25.183Z,4.22
2022-12-05T03:45:25.144Z,4.19
2022-12-05T03:46:25.170Z,4.17
2022-12-05T03:47:25.063Z,4.19
2022-12-05T03:48:25.020Z,4.16
2022-12-05T03:49:29.199Z,4.16
2022-12-05T03:50:24.942Z,4.20
2022-12-05T03:51:24.906Z,4.20
2022-12-05T03:52:24.860Z,4.28
2022-12-05T03:53:24.838Z,4.19
2022-12-05T03:54:24.784Z,4.22
2022-12-05T03:55:24.751Z,4.32
2022-12-05T03:56:24.701Z,4.31
2022-12-05T03:57:24.660Z,4.34
2022-12-05T03:58:24.619Z,4.31
2022-12-05T03:59:24.580Z,4.30
2022-12-05T04:00:24.537Z,4.32
2022-12-05T04:01:24.560Z,4.16
2022-12-05T04:02:24.462Z,4.16
2022-12-05T04:03:24.499Z,4.13
2022-12-05T04:04:24.376Z,4.12
2022-12-05T04:05:24.333Z,4.23
2022-12-05T04:06:24.296Z,4.10
2022-12-05T04:07:24.261Z,4.19
2022-12-05T04:08:24.214Z,4.19
2022-12-05T04:09:24.175Z,4.12
2022-12-05T04:10:24.134Z,4.05
2022-12-05T04:11:24.091Z,3.68
2022-12-05T04:12:24.055Z,3.59
2022-12-05T04:13:24.016Z,3.73
2022-12-05T04:14:23.992Z,3.63
2022-12-05T04:15:23.931Z,3.58
2022-12-05T04:16:23.940Z,3.69
2022-12-05T04:17:23.846Z,3.80
2022-12-05T04:18:23.807Z,3.86
2022-12-05T04:19:23.767Z,3.94
2022-12-05T04:20:23.729Z,3.94
2022-12-05T04:21:23.684Z,4.01
2022-12-05T04:22:23.692Z,3.98
2022-12-05T04:23:23.613Z,4.02
2022-12-05T04:24:23.567Z,4.01
2022-12-05T04:25:23.524Z,4.01
2022-12-05T04:26:23.484Z,4.01
2022-12-05T04:27:23.456Z,3.98
2022-12-05T04:28:23.401Z,3.92
2022-12-05T04:29:23.369Z,3.86
2022-12-05T04:30:23.334Z,3.96
2022-12-05T04:31:23.406Z,3.96
2022-12-05T04:32:24.066Z,3.95
2022-12-05T04:33:23.209Z,3.98
2022-12-05T04:34:23.162Z,4.02
2022-12-05T04:35:23.120Z,3.98
2022-12-05T04:36:23.151Z,4.13
2022-12-05T04:37:23.037Z,3.98
2022-12-05T04:38:23.000Z,4.05
2022-12-05T04:39:23.078Z,4.13
2022-12-05T04:40:22.916Z,4.04
2022-12-05T04:41:22.882Z,4.01
2022-12-05T04:42:22.840Z,4.04
2022-12-05T04:43:22.797Z,4.13
2022-12-05T04:44:22.755Z,4.02
2022-12-05T04:45:22.782Z,4.02
2022-12-05T04:46:22.717Z,3.96
2022-12-05T04:47:22.634Z,3.98
2022-12-05T04:48:22.596Z,3.88
2022-12-05T04:49:22.549Z,3.81
2022-12-05T04:50:22.513Z,3.83
2022-12-05T04:51:22.482Z,3.84
2022-12-05T04:52:22.434Z,3.86
2022-12-05T04:53:22.388Z,3.91
2022-12-05T04:54:22.353Z,3.87
2022-12-05T04:55:22.315Z,3.99
2022-12-05T04:56:22.324Z,3.87
2022-12-05T04:57:22.229Z,3.91
2022-12-05T04:58:22.196Z,3.88
2022-12-05T04:59:22.152Z,3.88
2022-12-05T05:00:22.116Z,4.02
2022-12-05T05:01:22.145Z,3.92
2022-12-05T05:02:22.124Z,3.94
2022-12-05T05:03:22.067Z,3.95
2022-12-05T05:04:21.949Z,3.91
2022-12-05T05:05:21.918Z,3.96
2022-12-05T05:06:21.867Z,4.04
2022-12-05T05:07:21.826Z,4.05
2022-12-05T05:08:21.833Z,3.98
2022-12-05T05:09:21.774Z,3.95
2022-12-05T05:10:21.705Z,4.01
2022-12-05T05:11:21.667Z,4.04
2022-12-05T05:12:21.623Z,3.99
2022-12-05T05:13:21.590Z,4.10
2022-12-05T05:14:21.541Z,4.02
2022-12-05T05:15:21.504Z,4.10
2022-12-05T05:16:21.564Z,4.16
2022-12-05T05:17:21.425Z,4.12
2022-12-05T05:18:21.386Z,4.12
2022-12-05T05:19:21.338Z,4.10
2022-12-05T05:20:21.629Z,4.10
2022-12-05T05:21:21.256Z,4.06
2022-12-05T05:22:21.220Z,4.02
2022-12-05T05:23:21.178Z,4.08
2022-12-05T05:24:21.198Z,3.99
2022-12-05T05:25:21.095Z,3.99
2022-12-05T05:26:21.057Z,4.04
2022-12-05T05:27:21.028Z,4.01
2022-12-05T05:28:20.975Z,4.10
2022-12-05T05:29:20.932Z,4.13
2022-12-05T05:30:20.898Z,3.88
2022-12-05T05:31:20.939Z,3.92
2022-12-05T05:32:20.820Z,3.91
2022-12-05T05:33:20.772Z,3.87
2022-12-05T05:34:20.730Z,3.99
2022-12-05T05:35:20.713Z,3.98
2022-12-05T05:36:20.651Z,3.87
2022-12-05T05:37:20.612Z,3.88
2022-12-05T05:38:20.566Z,3.83
2022-12-05T05:39:20.531Z,3.78
2022-12-05T05:40:20.489Z,3.96
2022-12-05T05:41:20.481Z,4.02
2022-12-05T05:42:20.407Z,3.88
2022-12-05T05:43:20.372Z,3.95
2022-12-05T05:44:20.326Z,4.04
2022-12-05T05:45:20.290Z,4.13
2022-12-05T05:46:20.266Z,4.14
2022-12-05T05:47:20.203Z,4.14
2022-12-05T05:48:20.161Z,4.06
2022-12-05T05:49:20.122Z,4.16
2022-12-05T05:50:22.036Z,4.14
2022-12-05T05:51:20.051Z,4.08
2022-12-05T05:52:20.005Z,4.13
2022-12-05T05:53:19.959Z,4.16
2022-12-05T05:54:19.935Z,4.12
2022-12-05T05:55:19.880Z,4.01
2022-12-05T05:56:21.869Z,4.05
2022-12-05T05:57:20.650Z,4.05
2022-12-05T05:58:19.763Z,4.06
2022-12-05T05:59:19.736Z,4.01
2022-12-05T06:00:19.705Z,3.94
2022-12-05T06:01:19.639Z,3.99
2022-12-05T06:02:19.651Z,3.91
2022-12-05T06:03:19.704Z,3.88
2022-12-05T06:04:19.574Z,3.95
2022-12-05T06:05:19.476Z,3.99
2022-12-05T06:06:19.439Z,3.98
2022-12-05T06:07:19.401Z,3.87
2022-12-05T06:08:19.410Z,4.04
2022-12-05T06:09:19.315Z,3.86
2022-12-05T06:10:19.284Z,3.84
2022-12-05T06:11:25.275Z,3.86
2022-12-05T06:12:19.193Z,3.77
2022-12-05T06:13:19.149Z,3.81
2022-12-05T06:14:19.110Z,3.88
2022-12-05T06:15:19.144Z,3.87
2022-12-05T06:16:19.130Z,3.91
2022-12-05T06:17:18.991Z,3.86
2022-12-05T06:18:18.956Z,3.88
2022-12-05T06:19:18.912Z,3.86
2022-12-05T06:20:18.870Z,4.02
2022-12-05T06:21:18.833Z,3.92
2022-12-05T06:22:18.786Z,3.83
2022-12-05T06:23:18.748Z,3.94
2022-12-05T06:24:18.713Z,4.04
2022-12-05T06:25:18.669Z,3.95
2022-12-05T06:26:18.630Z,4.02
2022-12-05T06:27:18.637Z,3.99
2022-12-05T06:28:18.548Z,4.02
2022-12-05T06:29:21.664Z,4.06
2022-12-05T06:30:18.464Z,3.99
2022-12-05T06:31:18.474Z,4.02
2022-12-05T06:32:18.388Z,4.02
2022-12-05T06:33:18.345Z,4.10
2022-12-05T06:34:18.305Z,4.12
2022-12-05T06:35:18.267Z,4.08
2022-12-05T06:36:18.225Z,4.17
2022-12-05T06:37:18.178Z,4.13
2022-12-05T06:38:18.148Z,4.14
2022-12-05T06:39:18.105Z,4.08
2022-12-05T06:40:18.055Z,4.02
2022-12-05T06:41:18.017Z,4.05
2022-12-05T06:42:17.981Z,4.05
2022-12-05T06:43:17.938Z,4.14
2022-12-05T06:44:17.904Z,4.08
2022-12-05T06:45:17.861Z,4.01
2022-12-05T06:46:17.857Z,3.86
2022-12-05T06:47:17.783Z,3.88
2022-12-05T06:48:17.734Z,4.01
2022-12-05T06:49:17.698Z,3.84
2022-12-05T06:50:17.656Z,3.83
2022-12-05T06:51:17.619Z,3.83
2022-12-05T06:52:17.573Z,3.84
2022-12-05T06:53:17.528Z,3.86
2022-12-05T06:54:17.490Z,3.87
2022-12-05T06:55:17.451Z,3.77
2022-12-05T06:56:17.411Z,3.66
2022-12-05T06:57:17.403Z,3.60
2022-12-05T06:58:17.336Z,3.68
2022-12-05T06:59:17.291Z,3.66
2022-12-05T07:00:17.270Z,3.77
2022-12-05T07:01:17.295Z,3.81
2022-12-05T07:02:17.270Z,3.80
2022-12-05T07:03:17.132Z,3.80
2022-12-05T07:04:17.088Z,3.88
2022-12-05T07:05:17.049Z,3.78
2022-12-05T07:06:17.058Z,3.86
2022-12-05T07:07:16.970Z,3.84
2022-12-05T07:08:17.001Z,3.92
2022-12-05T07:09:16.884Z,3.98
2022-12-05T07:10:16.842Z,4.02
2022-12-05T07:11:16.818Z,3.95
2022-12-05T07:12:16.767Z,3.88
2022-12-05T07:13:16.747Z,4.01
2022-12-05T07:14:38.703Z,4.05
2022-12-05T07:15:16.645Z,3.87
2022-12-05T07:16:16.705Z,4.02
2022-12-05T07:17:16.553Z,4.02
2022-12-05T07:18:16.515Z,4.04
2022-12-05T07:19:16.479Z,3.98
2022-12-05T07:20:16.435Z,4.06
2022-12-05T07:21:16.451Z,3.94
2022-12-05T07:22:16.556Z,3.98
2022-12-05T07:23:16.318Z,3.98
2022-12-05T07:24:16.274Z,4.05
2022-12-05T07:25:16.233Z,4.05
2022-12-05T07:26:16.192Z,4.02
2022-12-05T07:27:17.041Z,4.02
2022-12-05T07:28:16.110Z,4.06
2022-12-05T07:29:16.082Z,4.04
2022-12-05T07:30:16.052Z,4.02
2022-12-05T07:31:16.036Z,4.06
2022-12-05T07:32:16.048Z,4.05
2022-12-05T07:33:15.911Z,4.06
2022-12-05T07:34:15.868Z,4.02
2022-12-05T07:35:15.836Z,4.02
2022-12-05T07:36:15.785Z,4.05
2022-12-05T07:37:15.783Z,3.99
2022-12-05T07:38:15.747Z,3.99
2022-12-05T07:39:15.671Z,4.08
2022-12-05T07:40:15.623Z,4.04
2022-12-05T07:41:15.585Z,4.12
2022-12-05T07:42:15.574Z,4.05
2022-12-05T07:43:15.507Z,4.06
2022-12-05T07:44:15.470Z,4.08
2022-12-05T07:45:15.430Z,4.06
2022-12-05T07:46:15.466Z,4.08
2022-12-05T07:47:15.379Z,4.20
2022-12-05T07:48:18.489Z,4.13
2022-12-05T07:49:15.284Z,4.23
2022-12-05T07:50:15.222Z,4.19
2022-12-05T07:51:15.204Z,4.19
2022-12-05T07:52:15.144Z,4.06
2022-12-05T07:53:15.103Z,4.05
2022-12-05T07:54:15.064Z,3.99
2022-12-05T07:55:15.031Z,4.12
2022-12-05T07:56:15.010Z,4.14
2022-12-05T07:57:14.945Z,4.10
2022-12-05T07:58:14.907Z,4.13
2022-12-05T07:59:14.863Z,4.23
2022-12-05T08:00:14.815Z,4.17
2022-12-05T08:01:14.819Z,4.08
2022-12-05T08:02:14.808Z,4.06
2022-12-05T08:03:14.692Z,3.94
2022-12-05T08:04:15.758Z,4.12
2022-12-05T08:05:14.618Z,4.10
2022-12-05T08:06:14.592Z,4.12
2022-12-05T08:07:14.542Z,4.05
2022-12-05T08:08:14.552Z,3.81
2022-12-05T08:09:14.457Z,3.76
2022-12-05T08:10:14.411Z,3.68
2022-12-05T08:11:14.372Z,3.76
2022-12-05T08:12:14.333Z,4.01
2022-12-05T08:13:14.293Z,3.98
2022-12-05T08:14:14.257Z,3.95
2022-12-05T08:15:14.211Z,3.88
2022-12-05T08:16:14.265Z,3.99
2022-12-05T08:17:14.226Z,4.05
2022-12-05T08:18:14.100Z,3.76
2022-12-05T08:19:14.052Z,3.83
2022-12-05T08:20:14.011Z,3.77
2022-12-05T08:21:13.974Z,3.86
2022-12-05T08:22:13.929Z,3.87
2022-12-05T08:23:13.891Z,3.98
2022-12-05T08:24:13.849Z,3.99
2022-12-05T08:25:13.810Z,3.92
2022-12-05T08:26:13.806Z,4.02
2022-12-05T08:27:13.750Z,4.02
2022-12-05T08:28:13.688Z,4.08
2022-12-05T08:29:13.643Z,4.12
2022-12-05T08:30:13.607Z,4.13
2022-12-05T08:31:13.678Z,4.17
2022-12-05T08:32:13.528Z,4.20
2022-12-05T08:33:13.492Z,4.26
2022-12-05T08:34:13.449Z,4.35
2022-12-05T08:35:13.413Z,4.30
2022-12-05T08:36:13.379Z,4.24
2022-12-05T08:37:13.331Z,4.30
2022-12-05T08:38:13.295Z,4.32
2022-12-05T08:39:13.255Z,4.32
2022-12-05T08:40:13.202Z,4.32
2022-12-05T08:41:13.159Z,4.30
2022-12-05T08:42:13.123Z,4.37
2022-12-05T08:43:13.106Z,4.31
2022-12-05T08:44:13.088Z,4.17
2022-12-05T08:45:13.001Z,4.08
2022-12-05T08:46:13.054Z,3.95
2022-12-05T08:47:12.918Z,3.88
2022-12-05T08:48:12.886Z,4.06
2022-12-05T08:49:12.837Z,4.08
2022-12-05T08:50:12.797Z,4.13
2022-12-05T08:51:12.760Z,4.14
2022-12-05T08:52:12.714Z,4.10
2022-12-05T08:53:12.681Z,4.10
2022-12-05T08:54:12.647Z,4.05
2022-12-05T08:55:12.654Z,4.14
2022-12-05T08:56:12.578Z,4.10
2022-12-05T08:57:12.526Z,4.24
2022-12-05T08:58:12.479Z,4.20
2022-12-05T08:59:12.446Z,4.23
2022-12-05T09:00:12.397Z,4.20
2022-12-05T09:01:12.405Z,4.19
2022-12-05T09:02:12.410Z,4.20
2022-12-05T09:03:12.279Z,4.28
2022-12-05T09:04:12.247Z,4.31
2022-12-05T09:05:27.067Z,4.28
2022-12-05T09:06:12.155Z,4.19
2022-12-05T09:07:12.135Z,4.20
2022-12-05T09:08:12.193Z,4.26
2022-12-05T09:09:12.134Z,4.16
2022-12-05T09:10:11.991Z,4.22
2022-12-05T09:11:11.962Z,4.22
2022-12-05T09:12:11.915Z,4.26
2022-12-05T09:13:11.887Z,4.24
2022-12-05T09:14:11.863Z,4.16
2022-12-05T09:15:11.806Z,4.20
2022-12-05T09:16:11.834Z,4.04
2022-12-05T09:17:11.708Z,4.14
2022-12-05T09:18:11.666Z,4.12
2022-12-05T09:19:11.633Z,4.14
2022-12-05T09:20:11.595Z,4.14
2022-12-05T09:21:11.566Z,4.02
2022-12-05T09:22:11.514Z,4.16
2022-12-05T09:23:15.854Z,4.04
2022-12-05T09:24:11.441Z,4.12
2022-12-05T09:25:11.389Z,3.87
2022-12-05T09:26:11.352Z,3.76
2022-12-05T09:27:11.316Z,3.87
2022-12-05T09:28:11.269Z,3.87
2022-12-05T09:29:16.238Z,3.98
2022-12-05T09:30:11.187Z,4.13
2022-12-05T09:31:11.203Z,4.13
2022-12-05T09:32:11.108Z,4.26
2022-12-05T09:33:11.069Z,4.23
2022-12-05T09:34:11.030Z,4.19
2022-12-05T09:35:11.001Z,4.32
2022-12-05T09:36:10.949Z,4.26
2022-12-05T09:37:37.367Z,4.35
2022-12-05T09:38:10.863Z,4.41
2022-12-05T09:39:10.871Z,4.42
2022-12-05T09:40:10.781Z,4.45
2022-12-05T09:41:10.742Z,4.44
2022-12-05T09:42:10.755Z,4.45
2022-12-05T09:43:10.673Z,4.55
2022-12-05T09:44:10.623Z,4.55
2022-12-05T09:45:10.586Z,4.53
2022-12-05T09:46:10.575Z,4.53
2022-12-05T09:47:10.505Z,4.20
2022-12-05T09:48:10.460Z,4.17
2022-12-05T09:49:10.437Z,4.32
2022-12-05T09:50:10.386Z,4.14
2022-12-05T09:51:10.349Z,4.02
2022-12-05T09:52:10.302Z,4.17
2022-12-05T09:53:10.278Z,4.05
2022-12-05T09:54:10.220Z,3.91
2022-12-05T09:55:10.195Z,3.99
2022-12-05T09:56:10.142Z,4.14
2022-12-05T09:57:10.103Z,3.91
2022-12-05T09:58:10.064Z,3.87
2022-12-05T09:59:10.035Z,4.04
2022-12-05T10:00:09.982Z,4.19
2022-12-05T10:01:09.992Z,4.16
2022-12-05T10:02:09.968Z,4.06
2022-12-05T10:03:09.868Z,4.10
2022-12-05T10:04:09.899Z,4.20
2022-12-05T10:05:09.930Z,4.08
2022-12-05T10:06:09.741Z,4.24
2022-12-05T10:07:09.709Z,3.62
2022-12-05T10:08:09.694Z,3.60
2022-12-05T10:09:09.625Z,3.60
2022-12-05T10:10:09.596Z,3.78
2022-12-05T10:11:09.541Z,3.96
2022-12-05T10:12:09.500Z,4.05
2022-12-05T10:13:09.465Z,4.23
2022-12-05T10:14:09.425Z,4.40
2022-12-05T10:15:09.387Z,4.52
2022-12-05T10:16:09.373Z,4.52
2022-12-05T10:17:09.301Z,4.58
2022-12-05T10:18:09.266Z,4.55
2022-12-05T10:19:09.219Z,4.48
2022-12-05T10:20:09.176Z,4.41
2022-12-05T10:21:09.157Z,4.34
2022-12-05T10:22:09.107Z,4.48
2022-12-05T10:23:18.628Z,4.50
2022-12-05T10:24:09.025Z,4.26
2022-12-05T10:25:08.991Z,4.30
2022-12-05T10:26:08.954Z,4.44
2022-12-05T10:27:08.906Z,4.52
2022-12-05T10:28:08.877Z,4.38
2022-12-05T10:29:08.821Z,4.37
2022-12-05T10:30:08.789Z,4.45
2022-12-05T10:31:08.851Z,4.45
2022-12-05T10:32:08.699Z,4.50
2022-12-05T10:33:09.843Z,4.59
2022-12-05T10:34:08.618Z,4.58
2022-12-05T10:35:08.578Z,4.70
2022-12-05T10:36:08.538Z,4.63
2022-12-05T10:37:08.501Z,4.67
2022-12-05T10:38:08.459Z,4.71
2022-12-05T10:39:11.530Z,4.70
2022-12-05T10:40:08.377Z,4.56
2022-12-05T10:41:08.347Z,4.68
2022-12-05T10:42:08.297Z,4.74
2022-12-05T10:43:08.265Z,4.89
2022-12-05T10:44:08.217Z,4.90
2022-12-05T10:45:08.176Z,4.87
2022-12-05T10:46:12.764Z,4.87
2022-12-05T10:47:08.213Z,4.90
2022-12-05T10:48:08.057Z,4.92
2022-12-05T10:49:08.024Z,4.93
2022-12-05T10:50:07.978Z,4.92
2022-12-05T10:51:07.940Z,4.90
2022-12-05T10:52:07.894Z,4.86
2022-12-05T10:53:07.860Z,4.97
2022-12-05T10:54:07.823Z,4.94
2022-12-05T10:55:07.782Z,5.04
2022-12-05T10:56:29.902Z,5.02
2022-12-05T10:57:07.703Z,4.99
2022-12-05T10:58:10.371Z,4.96
2022-12-05T10:59:07.622Z,4.93
2022-12-05T11:00:07.575Z,4.96
2022-12-05T11:01:07.538Z,4.97
2022-12-05T11:02:07.557Z,4.99
2022-12-05T11:03:07.491Z,4.87
2022-12-05T11:04:13.335Z,4.93
2022-12-05T11:05:07.454Z,4.89
2022-12-05T11:06:07.337Z,4.93
2022-12-05T11:07:07.298Z,4.92
2022-12-05T11:08:07.274Z,4.78
2022-12-05T11:09:07.282Z,4.70
2022-12-05T11:10:07.179Z,4.67
2022-12-05T11:11:07.144Z,4.74
2022-12-05T11:12:07.098Z,4.68
2022-12-05T11:13:07.098Z,4.70
2022-12-05T11:14:07.018Z,4.56
2022-12-05T11:15:06.981Z,4.60
2022-12-05T11:16:07.032Z,4.56
2022-12-05T11:17:06.907Z,4.68
2022-12-05T11:18:06.859Z,4.78
2022-12-05T11:19:06.821Z,4.71
2022-12-05T11:20:06.775Z,4.67
2022-12-05T11:21:06.737Z,4.70
2022-12-05T11:22:06.695Z,4.68
2022-12-05T11:23:06.658Z,4.78
2022-12-05T11:24:06.624Z,4.66
2022-12-05T11:25:06.574Z,4.62
2022-12-05T11:26:06.534Z,4.60
2022-12-05T11:27:06.501Z,4.53
2022-12-05T11:28:06.455Z,4.62
2022-12-05T11:29:06.419Z,4.59
2022-12-05T11:30:06.379Z,4.58
2022-12-05T11:31:06.406Z,4.60
2022-12-05T11:32:06.300Z,4.62
2022-12-05T11:33:06.261Z,4.59
2022-12-05T11:34:06.216Z,4.60
2022-12-05T11:35:06.179Z,4.52
2022-12-05T11:36:06.139Z,4.55
2022-12-05T11:37:06.094Z,4.62
2022-12-05T11:38:06.052Z,4.70
2022-12-05T11:39:06.026Z,4.55
2022-12-05T11:40:05.974Z,4.38
2022-12-05T11:41:05.937Z,4.34
2022-12-05T11:42:05.891Z,4.26
2022-12-05T11:43:05.851Z,4.05
2022-12-05T11:44:05.818Z,4.16
2022-12-05T11:45:05.778Z,4.28
2022-12-05T11:46:05.779Z,4.32
2022-12-05T11:47:05.791Z,4.17
2022-12-05T11:48:05.654Z,4.32
2022-12-05T11:49:05.624Z,4.45
2022-12-05T11:50:05.569Z,4.42
2022-12-05T11:51:05.536Z,4.31
2022-12-05T11:52:05.493Z,4.26
2022-12-05T11:53:05.452Z,4.14
2022-12-05T11:54:05.421Z,4.08
2022-12-05T11:55:06.429Z,4.31
2022-12-05T11:56:05.332Z,4.10
2022-12-05T11:57:05.297Z,4.12
2022-12-05T11:58:05.255Z,4.14
2022-12-05T11:59:05.222Z,4.05
2022-12-05T12:00:05.173Z,4.08
2022-12-05T12:01:05.130Z,4.10
2022-12-05T12:02:05.139Z,4.12
2022-12-05T12:03:05.183Z,4.10
2022-12-05T12:04:05.012Z,4.26
2022-12-05T12:05:04.973Z,4.31
2022-12-05T12:06:04.935Z,4.30
2022-12-05T12:07:04.898Z,4.31
2022-12-05T12:08:04.934Z,4.31
2022-12-05T12:09:04.809Z,4.32
2022-12-05T12:10:09.510Z,4.44
2022-12-05T12:11:04.730Z,4.45
2022-12-05T12:12:04.687Z,4.58
2022-12-05T12:13:04.657Z,4.74
2022-12-05T12:14:04.606Z,4.71
2022-12-05T12:15:04.570Z,4.71
2022-12-05T12:16:08.608Z,4.62
2022-12-05T12:17:04.553Z,4.60
2022-12-05T12:18:04.449Z,4.58
2022-12-05T12:19:04.406Z,4.55
2022-12-05T12:20:04.365Z,4.45
2022-12-05T12:21:04.335Z,4.49
2022-12-05T12:22:04.285Z,4.58
2022-12-05T12:23:04.252Z,4.34
2022-12-05T12:24:04.208Z,4.32
2022-12-05T12:25:04.166Z,4.50
2022-12-05T12:26:04.130Z,4.62
2022-12-05T12:27:04.084Z,4.60
2022-12-05T12:28:04.618Z,4.63
2022-12-05T12:29:04.007Z,4.60
2022-12-05T12:30:03.973Z,4.60
2022-12-05T12:31:03.924Z,4.67
2022-12-05T12:32:03.919Z,4.70
2022-12-05T12:33:03.850Z,4.49
2022-12-05T12:34:03.802Z,4.23
2022-12-05T12:35:03.793Z,4.30
2022-12-05T12:36:03.725Z,4.37
2022-12-05T12:37:03.691Z,4.60
2022-12-05T12:38:03.650Z,4.67
2022-12-05T12:39:03.607Z,4.62
2022-12-05T12:40:03.562Z,4.58
2022-12-05T12:41:03.528Z,4.59
2022-12-05T12:42:03.498Z,4.70
2022-12-05T12:43:03.458Z,4.82
2022-12-05T12:44:03.404Z,4.75
2022-12-05T12:45:03.371Z,4.35
2022-12-05T12:46:06.645Z,4.26
2022-12-05T12:47:03.289Z,4.28
2022-12-05T12:48:03.242Z,4.49
2022-12-05T12:49:03.212Z,4.34
2022-12-05T12:50:03.162Z,4.31
2022-12-05T12:51:03.133Z,4.26
2022-12-05T12:52:03.085Z,4.34
2022-12-05T12:53:03.054Z,4.37
2022-12-05T12:54:03.005Z,4.23
2022-12-05T12:55:04.675Z,4.31
2022-12-05T12:56:02.927Z,4.35
2022-12-05T12:57:02.892Z,4.44
2022-12-05T12:58:02.842Z,4.45
2022-12-05T12:59:02.806Z,4.12
2022-12-05T13:00:02.776Z,4.26
2022-12-05T13:01:02.849Z,4.48
2022-12-05T13:02:02.753Z,4.55
2022-12-05T13:03:02.647Z,4.68
2022-12-05T13:04:02.604Z,4.70
2022-12-05T13:05:02.577Z,4.55
2022-12-05T13:06:02.542Z,4.59
2022-12-05T13:07:02.485Z,4.53
2022-12-05T13:08:02.500Z,4.59
2022-12-05T13:09:02.407Z,4.28
2022-12-05T13:10:02.369Z,4.38
2022-12-05T13:11:02.327Z,4.53
2022-12-05T13:12:02.287Z,4.58
2022-12-05T13:13:02.249Z,4.60
2022-12-05T13:14:02.208Z,4.56
2022-12-05T13:15:02.176Z,4.62
2022-12-05T13:16:02.309Z,4.53
2022-12-05T13:17:02.136Z,4.49
2022-12-05T13:18:02.054Z,4.28